Time;durP1;ratioP1;P1;durP2;ratioP2;P2;SDS_P1;SDS_P2;PMS_P1;PMS_P2;Temp;Humidity;BMP_temperature;BMP_pressure;BME280_temperature;BME280_humidity;BME280_pressure;Samples;Min_cycle;Max_cycle;Signal;HPM_P1;HPM_P2
2024/01/25 00:00:34;;;;;;;17.10;4.53;;;9.30;99.90;;;;;;5119169;28;20183;-42
2024/01/25 00:02:59;;;;;;;15.40;4.50;;;9.30;99.90;;;;;;5119666;28;20241;-49
2024/01/25 00:05:25;;;;;;;19.73;6.13;;;9.30;99.90;;;;;;5119390;28;20176;-42
2024/01/25 00:07:52;;;;;;;15.83;4.20;;;9.30;99.90;;;;;;5101108;28;20395;-45
2024/01/25 00:10:18;;;;;;;14.83;4.57;;;9.40;99.90;;;;;;5118970;28;20172;-42
2024/01/25 00:12:43;;;;;;;15.60;3.70;;;9.30;99.90;;;;;;5119440;28;20427;-43
2024/01/25 00:15:10;;;;;;;12.43;4.23;;;9.30;99.90;;;;;;5119909;28;20228;-43
2024/01/25 00:17:36;;;;;;;18.93;4.10;;;9.30;99.90;;;;;;5119716;28;20183;-42
2024/01/25 00:20:02;;;;;;;15.00;4.40;;;9.40;99.90;;;;;;5119188;28;20854;-45
2024/01/25 00:22:28;;;;;;;24.23;5.50;;;9.30;99.90;;;;;;5100937;28;20444;-43
2024/01/25 00:24:53;;;;;;;21.07;4.00;;;9.30;99.90;;;;;;5119071;28;20465;-47
2024/01/25 00:27:19;;;;;;;12.50;2.93;;;9.30;99.90;;;;;;5119246;28;20176;-46
2024/01/25 00:29:44;;;;;;;19.70;5.20;;;9.30;99.90;;;;;;5119535;28;20222;-44
2024/01/25 00:32:10;;;;;;;17.00;4.80;;;9.40;99.90;;;;;;5119139;28;20531;-42
2024/01/25 00:34:36;;;;;;;13.70;4.00;;;9.40;99.90;;;;;;5101362;28;20175;-45
2024/01/25 00:37:02;;;;;;;19.10;5.27;;;9.40;99.90;;;;;;5119676;28;20183;-43
2024/01/25 00:39:28;;;;;;;18.93;4.17;;;9.40;99.90;;;;;;5119874;28;20530;-45
2024/01/25 00:41:57;;;;;;;18.73;4.13;;;9.30;99.90;;;;;;5119091;28;20421;-43
2024/01/25 00:44:23;;;;;;;15.07;4.33;;;9.30;99.90;;;;;;5100262;28;20516;-42
2024/01/25 00:46:49;;;;;;;17.03;4.40;;;9.30;99.90;;;;;;5119085;28;20484;-42
2024/01/25 00:49:15;;;;;;;21.33;5.20;;;9.40;99.90;;;;;;5118761;28;20204;-44
2024/01/25 00:51:44;;;;;;;14.83;5.10;;;9.30;99.90;;;;;;5118498;28;20435;-43
2024/01/25 00:54:10;;;;;;;16.10;4.30;;;9.40;99.90;;;;;;5083792;28;20517;-42
2024/01/25 00:56:36;;;;;;;16.37;4.17;;;9.30;99.90;;;;;;5119045;28;20440;-45
2024/01/25 00:59:02;;;;;;;16.97;4.20;;;9.40;99.90;;;;;;5101411;28;20452;-44
2024/01/25 01:01:28;;;;;;;15.53;3.90;;;9.40;99.90;;;;;;5119294;28;20880;-42
2024/01/25 01:03:55;;;;;;;14.50;3.90;;;9.30;1.00;;;;;;5118813;28;20834;-44
2024/01/25 01:06:21;;;;;;;14.10;3.80;;;9.20;99.90;;;;;;5118855;28;20549;-43
2024/01/25 01:08:47;;;;;;;12.90;3.60;;;9.20;99.90;;;;;;5118263;28;20561;-42
2024/01/25 01:11:12;;;;;;;18.23;4.10;;;9.20;99.90;;;;;;5118772;28;20472;-44
2024/01/25 01:13:38;;;;;;;11.07;4.13;;;9.20;1.00;;;;;;5118468;28;20679;-43
2024/01/25 01:22:43;;;;;;;16.10;4.10;;;9.10;1.00;;;;;;5117882;28;20405;-45
2024/01/25 01:25:10;;;;;;;17.63;4.00;;;9.10;1.00;;;;;;5118575;28;20469;-47
2024/01/25 01:27:35;;;;;;;16.13;3.83;;;9.10;1.00;;;;;;5118394;28;20554;-43
2024/01/25 01:30:01;;;;;;;20.63;4.67;;;9.10;1.00;;;;;;5117709;28;20564;-43
2024/01/25 01:32:26;;;;;;;18.00;3.93;;;9.10;1.00;;;;;;5117584;28;20199;-42
2024/01/25 01:34:52;;;;;;;15.03;3.90;;;9.10;1.00;;;;;;5118017;28;20176;-46
2024/01/25 01:37:17;;;;;;;13.73;3.60;;;9.10;1.00;;;;;;5118399;28;20164;-44
2024/01/25 01:39:43;;;;;;;11.90;3.83;;;9.10;1.00;;;;;;5117956;28;20172;-42
2024/01/25 01:42:09;;;;;;;11.23;3.90;;;9.10;99.90;;;;;;5117694;28;20576;-42
2024/01/25 01:44:34;;;;;;;15.43;5.53;;;9.20;99.90;;;;;;5117538;28;20477;-42
2024/01/25 01:47:00;;;;;;;10.83;3.10;;;9.20;99.90;;;;;;5117333;28;20179;-42
2024/01/25 01:49:26;;;;;;;15.50;3.63;;;9.20;99.90;;;;;;5117540;28;20196;-43
2024/01/25 01:51:52;;;;;;;15.63;3.73;;;9.20;99.90;;;;;;5098328;28;20722;-45
2024/01/25 01:54:17;;;;;;;14.80;4.07;;;9.20;99.90;;;;;;5099385;28;20192;-49
2024/01/25 01:56:44;;;;;;;10.50;3.53;;;9.20;99.90;;;;;;5116767;28;20262;-43
2024/01/25 01:59:13;;;;;;;12.53;3.33;;;9.20;99.90;;;;;;5117502;28;20180;-44
2024/01/25 02:01:38;;;;;;;12.63;3.57;;;9.20;99.90;;;;;;5116708;28;20437;-47
2024/01/25 02:04:05;;;;;;;11.40;5.47;;;9.20;99.90;;;;;;5116843;28;20550;-46
2024/01/25 02:06:30;;;;;;;14.80;3.00;;;9.20;99.90;;;;;;5117226;28;20202;-42
2024/01/25 02:08:58;;;;;;;10.83;3.47;;;9.20;99.90;;;;;;5116658;28;20465;-42
2024/01/25 02:11:28;;;;;;;12.63;3.93;;;9.10;99.90;;;;;;5117142;28;20545;-45
2024/01/25 02:13:56;;;;;;;15.47;3.63;;;9.10;99.90;;;;;;5117815;28;20437;-45
2024/01/25 02:16:21;;;;;;;11.00;3.87;;;9.20;99.90;;;;;;5117289;28;20576;-44
2024/01/25 02:18:47;;;;;;;12.13;3.40;;;9.20;99.90;;;;;;5116905;28;20559;-47
2024/01/25 02:21:13;;;;;;;17.47;4.60;;;9.10;99.90;;;;;;5099117;28;20179;-43
2024/01/25 02:23:39;;;;;;;12.20;3.67;;;9.10;99.90;;;;;;5116223;28;20426;-43
2024/01/25 02:26:04;;;;;;;9.47;3.50;;;9.10;92.40;;;;;;5116177;28;20238;-42
2024/01/25 02:28:30;;;;;;;18.83;3.90;;;9.20;30.00;;;;;;5116533;28;20207;-43
2024/01/25 02:30:55;;;;;;;23.73;5.03;;;9.20;1.00;;;;;;5116261;28;20168;-45
2024/01/25 02:33:21;;;;;;;14.57;4.10;;;9.20;1.00;;;;;;5116197;28;20179;-43
2024/01/25 02:35:46;;;;;;;16.47;4.37;;;9.20;1.00;;;;;;5116138;28;20198;-43
2024/01/25 02:38:12;;;;;;;20.40;5.17;;;9.20;1.00;;;;;;5117067;28;20469;-44
2024/01/25 02:40:37;;;;;;;13.93;4.63;;;9.20;1.00;;;;;;5098591;28;20183;-46
2024/01/25 02:43:03;;;;;;;10.30;3.47;;;9.20;1.00;;;;;;5116930;28;20285;-43
2024/01/25 02:45:28;;;;;;;10.70;3.77;;;9.10;43.00;;;;;;5116502;28;20240;-43
2024/01/25 02:47:54;;;;;;;18.80;4.10;;;9.10;99.90;;;;;;5116690;28;20355;-44
2024/01/25 02:50:20;;;;;;;16.53;3.63;;;9.10;99.90;;;;;;5116772;28;20176;-45
2024/01/25 02:52:46;;;;;;;18.40;4.80;;;9.10;99.90;;;;;;5098805;28;20176;-45
2024/01/25 02:55:11;;;;;;;12.07;4.27;;;9.00;99.90;;;;;;5116693;28;20164;-43
2024/01/25 02:57:37;;;;;;;10.80;3.63;;;9.00;99.90;;;;;;5117152;28;20418;-43
2024/01/25 03:00:03;;;;;;;14.60;3.60;;;9.00;99.90;;;;;;5117015;28;20180;-45
2024/01/25 03:02:28;;;;;;;18.20;3.90;;;9.00;99.90;;;;;;5098024;28;20180;-46
2024/01/25 03:04:54;;;;;;;14.63;3.90;;;8.90;1.00;;;;;;5116637;28;20858;-42
2024/01/25 03:07:19;;;;;;;17.87;3.63;;;8.90;1.00;;;;;;5116669;28;20172;-44
2024/01/25 03:09:45;;;;;;;15.97;3.80;;;8.80;1.00;;;;;;5120610;28;20285;-46
2024/01/25 03:12:10;;;;;;;11.60;3.60;;;8.80;1.00;;;;;;5120669;28;20267;-44
2024/01/25 03:14:36;;;;;;;11.37;3.27;;;8.90;1.00;;;;;;5120707;28;20211;-47
2024/01/25 03:17:02;;;;;;;13.10;4.20;;;8.90;1.00;;;;;;5120512;28;20262;-42
2024/01/25 03:19:28;;;;;;;15.30;4.27;;;8.90;1.00;;;;;;5120417;28;20172;-43
2024/01/25 03:21:54;;;;;;;16.23;4.00;;;8.90;1.00;;;;;;5120052;28;20827;-43
2024/01/25 03:24:24;;;;;;;12.50;3.07;;;8.80;1.00;;;;;;5119951;28;20491;-42
2024/01/25 03:26:49;;;;;;;14.83;3.90;;;8.80;1.00;;;;;;5120176;28;20849;-43
2024/01/25 03:29:15;;;;;;;15.27;4.00;;;8.70;1.00;;;;;;5120135;28;20487;-43
2024/01/25 03:31:40;;;;;;;20.90;4.03;;;8.70;1.00;;;;;;5119905;28;20403;-44
2024/01/25 03:34:06;;;;;;;16.43;3.37;;;8.70;1.00;;;;;;5120250;28;20250;-44
2024/01/25 03:36:32;;;;;;;15.43;3.80;;;8.70;1.00;;;;;;5120312;28;20180;-44
2024/01/25 03:38:58;;;;;;;16.67;4.23;;;8.70;1.00;;;;;;5120585;28;20262;-43
2024/01/25 03:41:24;;;;;;;15.20;3.50;;;8.70;1.00;;;;;;5120071;28;20555;-42
2024/01/25 03:43:49;;;;;;;10.73;4.07;;;8.70;1.00;;;;;;5120203;28;20180;-43
2024/01/25 03:46:15;;;;;;;10.53;3.10;;;8.70;1.00;;;;;;5120032;28;20492;-43
2024/01/25 03:48:41;;;;;;;13.73;3.50;;;8.60;1.00;;;;;;5119976;28;20468;-44
2024/01/25 03:51:07;;;;;;;11.37;3.40;;;8.70;1.00;;;;;;5119551;28;20526;-46
2024/01/25 03:53:32;;;;;;;12.83;3.33;;;8.70;99.90;;;;;;5119745;28;20186;-44
2024/01/25 03:55:58;;;;;;;12.53;3.57;;;8.60;99.90;;;;;;5119643;28;20191;-44
2024/01/25 03:58:23;;;;;;;9.43;3.23;;;8.70;99.90;;;;;;5119564;28;21055;-43
2024/01/25 04:00:49;;;;;;;13.37;3.60;;;8.70;99.90;;;;;;5119595;28;20554;-42
2024/01/25 04:03:14;;;;;;;7.73;2.97;;;8.70;99.90;;;;;;5119874;28;20172;-43
2024/01/25 04:05:40;;;;;;;18.63;4.73;;;8.70;99.90;;;;;;5119713;28;20184;-45
2024/01/25 04:08:06;;;;;;;12.80;3.50;;;8.70;99.90;;;;;;5119297;28;20179;-43
2024/01/25 04:10:32;;;;;;;14.23;3.60;;;8.70;99.90;;;;;;5117374;28;20454;-45
2024/01/25 04:12:57;;;;;;;15.53;3.40;;;8.70;99.90;;;;;;5116778;28;20416;-43
2024/01/25 04:15:23;;;;;;;13.20;4.10;;;8.70;48.20;;;;;;5117834;28;20427;-47
2024/01/25 04:17:49;;;;;;;14.50;4.00;;;8.70;99.90;;;;;;5118064;28;20266;-43
2024/01/25 04:20:15;;;;;;;16.97;4.20;;;8.70;99.90;;;;;;5117521;28;20222;-45
2024/01/25 04:22:40;;;;;;;14.57;3.40;;;8.60;74.90;;;;;;5118214;28;20437;-43
2024/01/25 04:25:06;;;;;;;7.50;2.80;;;8.70;44.20;;;;;;5118227;28;20468;-43
2024/01/25 04:27:32;;;;;;;15.17;3.20;;;8.60;53.40;;;;;;5118228;28;20252;-46
2024/01/25 04:29:58;;;;;;;11.97;4.13;;;8.60;26.70;;;;;;5118400;28;20477;-44
2024/01/25 04:32:23;;;;;;;20.20;8.27;;;8.60;1.00;;;;;;5118320;28;20238;-46
2024/01/25 04:34:49;;;;;;;12.43;5.20;;;8.60;16.90;;;;;;5100662;28;20434;-44
2024/01/25 04:37:14;;;;;;;10.80;2.90;;;8.60;1.00;;;;;;5118729;28;20615;-44
2024/01/25 04:39:40;;;;;;;17.23;4.50;;;8.60;1.00;;;;;;5118444;28;20240;-44
2024/01/25 04:42:05;;;;;;;14.67;5.70;;;8.60;1.00;;;;;;5117883;28;20198;-44
2024/01/25 04:44:31;;;;;;;16.90;4.13;;;8.60;1.00;;;;;;5117090;28;20233;-46
2024/01/25 04:46:57;;;;;;;12.97;5.73;;;8.60;1.00;;;;;;5117392;28;20184;-42
2024/01/25 04:49:23;;;;;;;21.30;7.17;;;8.60;99.90;;;;;;5118053;28;20207;-42
2024/01/25 04:51:48;;;;;;;12.70;4.97;;;8.60;99.90;;;;;;5117444;28;20451;-45
2024/01/25 04:54:15;;;;;;;13.50;4.30;;;8.60;99.90;;;;;;5116515;28;20191;-43
2024/01/25 04:56:41;;;;;;;13.23;5.80;;;8.50;99.90;;;;;;5116736;28;20233;-43
2024/01/25 04:59:07;;;;;;;17.63;9.07;;;8.60;1.00;;;;;;5116680;28;20457;-48
2024/01/25 05:01:32;;;;;;;13.87;6.10;;;8.50;1.00;;;;;;5117012;28;20452;-44
2024/01/25 05:03:58;;;;;;;14.87;5.13;;;8.50;1.00;;;;;;5117008;28;20168;-46
2024/01/25 05:06:23;;;;;;;16.90;5.17;;;8.50;1.00;;;;;;5116443;28;20191;-44
2024/01/25 05:08:49;;;;;;;16.80;4.10;;;8.60;1.00;;;;;;5116116;28;20218;-44
2024/01/25 05:11:14;;;;;;;10.47;3.80;;;8.60;99.90;;;;;;5114919;28;20172;-45
2024/01/25 05:13:40;;;;;;;20.27;3.80;;;8.50;99.90;;;;;;5114959;28;20188;-42
2024/01/25 05:16:05;;;;;;;12.73;5.13;;;8.50;99.90;;;;;;5115946;28;20244;-44
2024/01/25 05:18:31;;;;;;;15.57;4.37;;;8.50;99.90;;;;;;5115628;28;20188;-43
2024/01/25 05:20:57;;;;;;;12.43;4.43;;;8.50;99.90;;;;;;5115499;28;20187;-44
2024/01/25 05:23:23;;;;;;;11.93;4.30;;;8.40;99.90;;;;;;5115745;28;20176;-43
2024/01/25 05:25:48;;;;;;;18.67;5.60;;;8.40;1.00;;;;;;5116374;28;20541;-42
2024/01/25 05:28:14;;;;;;;20.30;9.00;;;8.40;1.00;;;;;;5117363;28;20209;-45
2024/01/25 05:30:39;;;;;;;16.77;5.63;;;8.40;1.00;;;;;;5117669;28;20414;-43
2024/01/25 05:33:05;;;;;;;19.60;8.87;;;8.30;1.00;;;;;;5116843;28;20679;-42
2024/01/25 05:35:30;;;;;;;18.40;5.70;;;8.30;1.00;;;;;;5099594;28;20180;-45
2024/01/25 05:37:56;;;;;;;21.30;8.50;;;8.20;1.00;;;;;;5117499;28;20176;-45
2024/01/25 05:40:22;;;;;;;15.60;6.77;;;8.20;1.00;;;;;;5116869;28;20220;-44
2024/01/25 05:42:47;;;;;;;18.00;5.83;;;8.20;1.00;;;;;;5116202;28;20533;-46
2024/01/25 05:45:13;;;;;;;13.07;4.13;;;8.10;1.00;;;;;;5116252;28;20519;-42
2024/01/25 05:47:39;;;;;;;34.20;16.70;;;8.00;94.20;;;;;;5115380;28;20275;-46
2024/01/25 05:50:05;;;;;;;15.67;4.83;;;8.00;99.90;;;;;;5115456;28;20516;-42
2024/01/25 05:52:30;;;;;;;27.27;9.10;;;7.90;99.90;;;;;;5115066;28;20168;-43
2024/01/25 05:54:56;;;;;;;25.03;10.27;;;7.90;99.90;;;;;;5114887;28;20412;-42
2024/01/25 05:57:21;;;;;;;20.87;6.70;;;7.90;99.90;;;;;;5112861;28;20471;-43
2024/01/25 05:59:47;;;;;;;35.63;13.07;;;7.80;99.90;;;;;;5113374;28;20774;-44
2024/01/25 06:02:13;;;;;;;14.93;6.50;;;7.80;99.90;;;;;;5114294;28;20623;-44
2024/01/25 06:04:39;;;;;;;90.27;30.40;;;7.80;99.90;;;;;;5113607;28;20874;-43
2024/01/25 06:07:04;;;;;;;163.70;49.10;;;7.80;99.90;;;;;;5113384;28;20409;-43
2024/01/25 06:09:31;;;;;;;27.10;8.80;;;7.70;1.00;;;;;;5113909;28;20553;-43
2024/01/25 06:11:57;;;;;;;115.17;40.50;;;7.70;1.00;;;;;;5112362;28;20179;-44
2024/01/25 06:14:23;;;;;;;47.50;18.83;;;7.70;1.00;;;;;;5095597;28;20414;-43
2024/01/25 06:16:48;;;;;;;22.40;6.40;;;7.60;1.00;;;;;;5113603;28;20199;-43
2024/01/25 06:19:14;;;;;;;20.93;8.60;;;7.60;1.00;;;;;;5112601;28;20409;-44
2024/01/25 06:21:39;;;;;;;24.90;5.63;;;7.50;1.00;;;;;;5113567;28;20583;-45
2024/01/25 06:24:05;;;;;;;18.93;5.00;;;7.50;1.00;;;;;;5094591;28;20228;-46
2024/01/25 06:26:31;;;;;;;13.70;5.40;;;7.40;1.00;;;;;;5115149;28;20197;-44
2024/01/25 06:28:57;;;;;;;18.70;4.77;;;7.40;1.00;;;;;;5114122;28;20581;-45
2024/01/25 06:31:23;;;;;;;19.43;5.50;;;7.40;1.00;;;;;;5114857;28;20167;-43
2024/01/25 06:33:50;;;;;;;19.20;4.80;;;7.40;1.00;;;;;;5097172;28;20680;-44
2024/01/25 06:36:16;;;;;;;13.33;4.87;;;7.40;1.00;;;;;;5113952;28;20497;-42
2024/01/25 06:38:42;;;;;;;17.23;4.10;;;7.40;1.00;;;;;;5095616;28;20434;-46
2024/01/25 06:41:09;;;;;;;19.90;4.70;;;7.30;1.00;;;;;;5113574;28;20436;-43
2024/01/25 06:43:34;;;;;;;11.07;3.93;;;7.30;1.00;;;;;;5114973;28;20304;-45
2024/01/25 06:46:00;;;;;;;19.77;6.03;;;7.30;1.00;;;;;;5117870;28;20808;-45
2024/01/25 06:48:25;;;;;;;16.87;4.97;;;7.30;1.00;;;;;;5118358;28;20668;-43
2024/01/25 06:50:51;;;;;;;16.10;4.57;;;7.20;1.00;;;;;;5117533;28;20538;-44
2024/01/25 06:53:17;;;;;;;17.40;4.57;;;7.20;1.00;;;;;;5117331;28;20597;-45
2024/01/25 06:55:42;;;;;;;17.83;4.80;;;7.20;1.00;;;;;;5118199;28;20538;-45
2024/01/25 06:58:08;;;;;;;20.63;5.73;;;7.20;1.00;;;;;;5116759;28;20496;-44
2024/01/25 07:00:34;;;;;;;22.43;6.07;;;7.10;1.00;;;;;;5117163;28;20186;-44
2024/01/25 07:02:59;;;;;;;20.57;4.93;;;7.10;1.00;;;;;;5118162;28;20183;-44
2024/01/25 07:05:25;;;;;;;16.37;4.63;;;7.10;1.00;;;;;;5100102;28;20827;-44
2024/01/25 07:07:50;;;;;;;12.97;5.20;;;7.10;1.00;;;;;;5099405;28;20526;-44
2024/01/25 07:10:16;;;;;;;14.83;4.50;;;7.00;20.80;;;;;;5117848;28;20207;-44
2024/01/25 07:12:41;;;;;;;9.73;4.00;;;6.90;51.60;;;;;;5118137;28;20550;-44
2024/01/25 07:15:07;;;;;;;12.70;4.40;;;6.90;47.60;;;;;;5117344;28;20180;-42
2024/01/25 07:17:33;;;;;;;15.73;4.30;;;6.90;47.60;;;;;;5117128;28;20251;-43
2024/01/25 07:19:58;;;;;;;14.33;3.90;;;6.90;64.50;;;;;;5116626;28;20727;-44
2024/01/25 07:22:24;;;;;;;18.23;4.03;;;6.90;86.30;;;;;;5117770;28;20616;-43
2024/01/25 07:24:49;;;;;;;16.10;4.77;;;7.00;54.90;;;;;;5117927;28;20550;-46
2024/01/25 07:27:15;;;;;;;15.07;5.03;;;7.00;47.70;;;;;;5118765;28;20263;-43
2024/01/25 07:29:44;;;;;;;13.63;5.70;;;7.00;58.80;;;;;;5119195;28;20322;-42
2024/01/25 07:32:10;;;;;;;10.60;3.80;;;7.10;63.40;;;;;;5118451;28;20700;-44
2024/01/25 07:34:36;;;;;;;16.87;4.30;;;7.20;2.70;;;;;;5117754;28;20488;-45
2024/01/25 07:37:01;;;;;;;16.37;4.53;;;7.20;15.30;;;;;;5117006;28;20878;-43
2024/01/25 07:39:27;;;;;;;12.70;4.10;;;7.20;1.70;;;;;;5118068;28;20270;-46
2024/01/25 07:41:53;;;;;;;12.57;4.30;;;7.30;1.00;;;;;;5118199;28;20262;-45
2024/01/25 07:44:19;;;;;;;12.50;4.83;;;7.40;1.00;;;;;;5118535;28;20203;-44
2024/01/25 07:46:45;;;;;;;21.70;4.80;;;7.60;1.00;;;;;;5118230;28;20562;-45
2024/01/25 07:49:10;;;;;;;19.23;4.93;;;7.70;1.00;;;;;;5118287;28;20464;-44
2024/01/25 07:51:36;;;;;;;16.23;4.20;;;7.90;1.00;;;;;;5117769;28;20526;-46
2024/01/25 07:54:02;;;;;;;16.17;4.73;;;8.00;99.90;;;;;;5116299;28;20176;-43
2024/01/25 07:56:28;;;;;;;10.87;3.70;;;8.20;99.90;;;;;;5117946;28;20244;-45
2024/01/25 07:58:53;;;;;;;11.73;4.57;;;8.30;99.90;;;;;;5118572;28;20426;-46
2024/01/25 08:01:19;;;;;;;13.17;5.10;;;8.50;99.90;;;;;;5117424;28;20220;-44
2024/01/25 08:03:44;;;;;;;13.07;4.03;;;8.70;1.00;;;;;;5098808;28;20187;-47
2024/01/25 08:06:10;;;;;;;16.00;5.50;;;9.00;1.00;;;;;;5117548;28;20184;-45
2024/01/25 08:08:36;;;;;;;12.53;4.57;;;9.10;1.00;;;;;;5117787;28;20209;-45
2024/01/25 08:11:04;;;;;;;14.30;4.30;;;9.20;1.00;;;;;;5117142;28;20524;-45
2024/01/25 08:13:29;;;;;;;10.80;4.53;;;9.40;1.00;;;;;;5116787;28;20394;-44
2024/01/25 08:15:55;;;;;;;11.23;3.53;;;9.60;1.00;;;;;;5117904;28;20476;-44
2024/01/25 08:18:22;;;;;;;13.93;4.23;;;10.00;1.00;;;;;;5118804;28;20194;-45
2024/01/25 08:20:48;;;;;;;16.93;4.10;;;10.30;99.90;;;;;;5117661;28;20433;-45
2024/01/25 08:23:14;;;;;;;13.03;3.73;;;10.20;1.00;;;;;;5118350;28;20585;-43
2024/01/25 08:25:40;;;;;;;14.93;4.03;;;10.30;99.90;;;;;;5117492;28;20231;-44
2024/01/25 08:28:05;;;;;;;11.10;4.00;;;10.00;99.90;;;;;;5117308;28;20183;-44
2024/01/25 08:30:31;;;;;;;8.93;3.83;;;10.00;99.90;;;;;;5098854;28;20541;-44
2024/01/25 08:32:56;;;;;;;9.63;3.70;;;10.10;1.00;;;;;;5116284;28;20271;-45
2024/01/25 08:35:22;;;;;;;10.77;3.80;;;10.10;99.90;;;;;;5115307;28;20180;-44
2024/01/25 08:37:48;;;;;;;10.87;3.70;;;10.30;1.00;;;;;;5117267;28;20195;-45
2024/01/25 08:40:14;;;;;;;13.97;3.47;;;10.40;1.00;;;;;;5117697;28;20179;-42
2024/01/25 08:42:40;;;;;;;11.83;4.80;;;10.70;99.90;;;;;;5115932;28;20472;-44
2024/01/25 08:45:08;;;;;;;14.03;4.30;;;11.00;1.00;;;;;;5116514;28;20180;-44
2024/01/25 08:47:35;;;;;;;7.80;3.03;;;11.70;6.50;;;;;;5115305;28;20179;-46
2024/01/25 08:50:00;;;;;;;10.20;4.93;;;12.20;1.00;;;;;;5115669;28;20477;-40
2024/01/25 08:52:26;;;;;;;13.93;4.10;;;12.60;99.90;;;;;;5115590;28;21075;-43
2024/01/25 08:54:51;;;;;;;14.80;3.50;;;13.10;99.90;;;;;;5114560;28;20168;-44
2024/01/25 08:57:17;;;;;;;7.50;3.17;;;13.50;99.90;;;;;;5116442;28;20187;-40
2024/01/25 08:59:43;;;;;;;10.57;3.37;;;14.00;82.20;;;;;;5115127;28;20553;-45
2024/01/25 09:02:08;;;;;;;14.67;4.47;;;14.50;28.40;;;;;;5115546;28;20211;-40
2024/01/25 09:04:34;;;;;;;13.40;4.37;;;15.50;1.00;;;;;;5115813;28;20255;-46
2024/01/25 09:06:59;;;;;;;7.00;2.80;;;16.40;1.00;;;;;;5116941;28;20533;-43
2024/01/25 09:09:25;;;;;;;7.70;4.00;;;17.20;1.00;;;;;;5117103;28;20298;-41
2024/01/25 09:11:52;;;;;;;8.80;4.20;;;17.20;1.00;;;;;;5117607;28;20306;-48
2024/01/25 09:14:17;;;;;;;10.70;3.27;;;17.20;1.00;;;;;;5116356;28;20929;-45
2024/01/25 09:16:43;;;;;;;9.20;3.53;;;18.20;1.00;;;;;;5116990;28;20479;-45
2024/01/25 09:19:09;;;;;;;7.50;3.17;;;18.90;1.00;;;;;;5116332;28;20187;-44
2024/01/25 09:21:34;;;;;;;10.60;3.77;;;19.90;1.00;;;;;;5116551;28;20206;-43
2024/01/25 09:24:00;;;;;;;10.60;3.77;;;20.20;1.00;;;;;;5097340;28;20242;-40
2024/01/25 09:26:26;;;;;;;7.47;3.70;;;19.80;1.00;;;;;;5114247;28;20557;-43
2024/01/25 09:28:51;;;;;;;10.30;3.83;;;20.10;1.00;;;;;;5113355;28;20482;-45
2024/01/25 09:31:17;;;;;;;7.77;3.63;;;20.80;1.00;;;;;;5114625;28;20179;-43
2024/01/25 09:33:42;;;;;;;13.30;4.10;;;21.00;1.00;;;;;;5115102;28;20187;-42
2024/01/25 09:36:08;;;;;;;11.97;4.17;;;19.80;1.00;;;;;;5114652;28;20240;-43
2024/01/25 09:38:33;;;;;;;14.53;5.00;;;19.00;1.00;;;;;;5100457;28;20180;-42
2024/01/25 09:41:00;;;;;;;9.83;3.90;;;18.60;1.00;;;;;;5093135;28;20597;-45
2024/01/25 09:43:26;;;;;;;10.10;3.80;;;18.00;1.00;;;;;;5094509;28;20175;-42
2024/01/25 09:45:55;;;;;;;10.40;3.50;;;17.40;1.00;;;;;;5095607;28;20875;-42
2024/01/25 09:48:21;;;;;;;13.40;3.37;;;16.70;1.00;;;;;;5094921;28;20450;-41
2024/01/25 09:50:48;;;;;;;10.67;4.07;;;16.10;1.00;;;;;;5095469;28;20792;-42
2024/01/25 09:53:22;;;;;;;9.93;3.57;;;15.60;1.00;;;;;;5060226;28;20279;-43
2024/01/25 09:56:01;;;;;;;18.40;3.40;;;15.20;1.00;;;;;;5075828;28;20426;-41
2024/01/25 09:58:34;;;;;;;11.43;3.87;;;14.60;1.00;;;;;;5094431;28;20768;-42
2024/01/25 10:01:00;;;;;;;14.20;5.37;;;14.30;1.00;;;;;;5059390;28;20423;-42
2024/01/25 10:03:25;;;;;;;12.07;4.67;;;14.20;1.00;;;;;;5094085;28;20431;-42
2024/01/25 10:05:51;;;;;;;12.33;3.70;;;14.10;1.00;;;;;;5094299;28;20200;-45
2024/01/25 10:08:18;;;;;;;7.80;2.90;;;14.00;1.00;;;;;;5077035;28;20512;-46
2024/01/25 10:10:44;;;;;;;8.80;3.40;;;14.40;1.00;;;;;;5092125;28;20168;-42
2024/01/25 10:13:13;;;;;;;11.57;3.40;;;14.90;1.00;;;;;;5094188;28;20419;-42
2024/01/25 10:15:41;;;;;;;6.77;2.80;;;15.10;1.00;;;;;;5093425;28;20519;-43
2024/01/25 10:18:12;;;;;;;12.20;4.40;;;15.00;1.00;;;;;;5075757;28;20549;-43
2024/01/25 10:20:39;;;;;;;9.00;3.50;;;15.50;1.00;;;;;;5093645;28;20429;-45
2024/01/25 10:23:04;;;;;;;9.10;3.47;;;16.00;1.00;;;;;;5076079;28;20544;-46
2024/01/25 10:25:30;;;;;;;13.17;3.50;;;16.40;1.00;;;;;;5093013;28;20832;-45
2024/01/25 10:27:55;;;;;;;8.70;3.00;;;16.20;1.00;;;;;;5075090;28;20180;-43
2024/01/25 10:30:21;;;;;;;9.53;3.50;;;16.90;1.00;;;;;;5095397;28;20303;-44
2024/01/25 10:32:47;;;;;;;7.57;2.93;;;17.20;1.00;;;;;;5094276;28;20176;-41
2024/01/25 10:35:13;;;;;;;9.40;3.03;;;16.70;1.00;;;;;;5077619;28;20491;-47
2024/01/25 10:37:40;;;;;;;10.00;3.10;;;17.50;1.00;;;;;;5094487;28;20176;-42
2024/01/25 10:40:09;;;;;;;11.63;3.20;;;18.10;1.00;;;;;;5093785;28;20509;-45
2024/01/25 10:42:35;;;;;;;7.77;3.30;;;18.60;1.00;;;;;;5077761;28;20451;-41
2024/01/25 10:45:01;;;;;;;8.00;3.10;;;19.10;1.00;;;;;;5075798;28;20530;-43
2024/01/25 10:47:30;;;;;;;8.53;3.73;;;19.20;1.00;;;;;;5093613;28;20180;-41
2024/01/25 10:49:58;;;;;;;11.80;3.00;;;17.90;1.00;;;;;;5092950;28;20520;-45
2024/01/25 10:52:24;;;;;;;6.40;2.40;;;18.40;1.00;;;;;;5075668;28;20415;-42
2024/01/25 10:54:50;;;;;;;7.77;2.87;;;19.20;1.00;;;;;;5076027;28;20432;-44
2024/01/25 10:57:15;;;;;;;7.57;2.93;;;19.80;1.00;;;;;;5094441;28;20185;-46
2024/01/25 10:59:41;;;;;;;10.50;3.70;;;19.50;1.00;;;;;;5094914;28;20189;-44
2024/01/25 11:02:07;;;;;;;10.10;2.83;;;18.90;1.00;;;;;;5094168;28;20188;-43
2024/01/25 11:04:33;;;;;;;8.23;3.57;;;18.80;1.00;;;;;;5059149;28;20235;-46
2024/01/25 11:07:09;;;;;;;9.90;3.57;;;17.30;1.00;;;;;;5094731;28;20437;-46
2024/01/25 11:09:38;;;;;;;10.40;3.20;;;16.50;1.00;;;;;;5092480;28;20492;-42
2024/01/25 11:12:14;;;;;;;9.53;2.77;;;15.40;1.00;;;;;;5093053;28;20440;-41
2024/01/25 11:14:39;;;;;;;8.50;3.27;;;15.00;1.00;;;;;;5092594;28;20433;-43
2024/01/25 11:17:21;;;;;;;6.00;2.37;;;16.00;1.00;;;;;;5058205;28;20448;-42
2024/01/25 11:19:49;;;;;;;9.23;3.50;;;18.00;1.00;;;;;;5075102;28;20258;-43
2024/01/25 11:22:15;;;;;;;5.67;2.50;;;19.20;1.00;;;;;;5094038;28;20581;-42
2024/01/25 11:24:42;;;;;;;8.00;2.93;;;19.80;1.00;;;;;;5076743;28;20561;-42
2024/01/25 11:27:09;;;;;;;10.23;2.93;;;20.20;1.00;;;;;;5094361;28;20186;-43
2024/01/25 11:29:34;;;;;;;10.63;3.03;;;20.70;1.00;;;;;;5096202;28;20546;-42
2024/01/25 11:32:00;;;;;;;12.73;3.00;;;21.20;1.00;;;;;;5097235;28;20452;-43
2024/01/25 11:34:26;;;;;;;12.63;4.23;;;21.20;1.00;;;;;;5095493;28;20773;-42
2024/01/25 11:36:51;;;;;;;8.67;2.40;;;22.30;1.00;;;;;;5077709;28;20250;-39
2024/01/25 11:39:17;;;;;;;9.40;3.23;;;24.30;1.00;;;;;;5095307;28;20208;-41
2024/01/25 11:41:47;;;;;;;11.07;6.30;;;;;;;;;;5077008;28;20271;-41
2024/01/25 11:44:14;;;;;;;11.23;6.17;;;26.90;1.00;;;;;;5095643;28;20196;-43
2024/01/25 11:46:39;;;;;;;10.03;4.90;;;29.60;1.00;;;;;;5094813;28;20628;-41
2024/01/25 11:49:06;;;;;;;8.33;3.90;;;29.80;1.00;;;;;;5095243;28;20549;-40
2024/01/25 11:51:32;;;;;;;8.37;3.77;;;30.70;1.00;;;;;;5096134;28;20245;-41
2024/01/25 11:53:58;;;;;;;8.97;3.90;;;32.30;1.00;;;;;;5096477;28;20434;-39
2024/01/25 11:56:29;;;;;;;9.17;4.20;;;32.90;1.00;;;;;;5078920;28;20195;-42
2024/01/25 11:58:56;;;;;;;7.90;3.53;;;33.90;1.00;;;;;;5095303;28;20478;-42
2024/01/25 12:01:23;;;;;;;6.50;3.40;;;34.10;1.00;;;;;;5077863;28;20393;-41
2024/01/25 12:03:49;;;;;;;6.13;3.10;;;33.30;1.00;;;;;;5078947;28;20381;-46
2024/01/25 12:06:15;;;;;;;7.07;3.30;;;32.50;1.00;;;;;;5096829;28;20491;-42
2024/01/25 12:08:40;;;;;;;7.03;3.50;;;31.60;1.00;;;;;;5095737;28;20173;-44
2024/01/25 12:11:07;;;;;;;7.13;3.60;;;30.60;1.00;;;;;;5095507;28;20185;-40
2024/01/25 12:13:39;;;;;;;8.43;3.60;;;29.90;1.00;;;;;;5096304;28;20168;-43
2024/01/25 12:16:06;;;;;;;7.80;3.40;;;29.70;1.00;;;;;;5095584;28;20779;-42
2024/01/25 12:18:32;;;;;;;9.70;3.77;;;29.50;1.00;;;;;;5095091;28;20500;-45
2024/01/25 12:21:03;;;;;;;8.47;3.07;;;30.00;1.00;;;;;;5094922;28;20517;-42
2024/01/25 12:23:39;;;;;;;8.13;3.70;;;30.00;1.00;;;;;;5094170;28;20479;-46
2024/01/25 12:26:06;;;;;;;7.77;3.70;;;29.50;1.00;;;;;;5095416;28;20555;-42
2024/01/25 12:28:32;;;;;;;5.40;2.63;;;29.20;1.00;;;;;;5075309;28;20390;-43
2024/01/25 12:30:59;;;;;;;6.70;3.30;;;29.00;1.00;;;;;;5094331;28;20496;-44
2024/01/25 12:33:25;;;;;;;14.07;3.40;;;28.60;1.00;;;;;;5097194;28;20596;-43
2024/01/25 12:35:51;;;;;;;6.27;3.10;;;28.70;1.00;;;;;;5096273;28;20456;-43
2024/01/25 12:38:16;;;;;;;6.23;3.67;;;29.20;1.00;;;;;;5096704;28;20181;-42
2024/01/25 12:40:44;;;;;;;6.87;2.73;;;29.30;1.00;;;;;;5095383;28;20164;-42
2024/01/25 12:43:10;;;;;;;4.97;2.17;;;29.40;1.00;;;;;;5096151;28;20393;-44
2024/01/25 12:45:36;;;;;;;4.73;2.87;;;29.00;1.00;;;;;;5078426;28;20430;-42
2024/01/25 12:48:02;;;;;;;5.10;2.63;;;28.50;1.00;;;;;;5095836;28;20438;-41
2024/01/25 12:50:28;;;;;;;6.63;2.83;;;28.00;1.00;;;;;;5095333;28;20191;-42
2024/01/25 12:52:53;;;;;;;4.20;2.20;;;27.90;1.00;;;;;;5095344;28;20404;-41